Terminal Aerodrome Forecast
Issued by NWS Tampa Bay Area, FL

Home | Current Version | Previous Version | Text Only | Print | Product List | Glossary On
Versions: 1 2 3 4 5 6 7 8 9 10 11 12 13 14 15 16 17 18 19 20 21 22 23 24
261
FTUS42 KTBW 020539
TAFTPA
TAF
KTPA 020539Z 0206/0306 11006KT P6SM SCT020 SCT060
     FM021400 15007KT P6SM SCT030 BKN060
     FM022000 24009KT P6SM SCT030 SCT250
     FM030100 VRB06KT P6SM SCT030 BKN250=

USA.gov is the U.S. government's official web portal to all federal, state and local government web resources and services.